Time;durP1;ratioP1;P1;durP2;ratioP2;P2;SDS_P1;SDS_P2;PMS_P1;PMS_P2;Temp;Humidity;BMP_temperature;BMP_pressure;BME280_temperature;BME280_humidity;BME280_pressure;Samples;Min_cycle;Max_cycle;Signal;HPM_P1;HPM_P2
2024/01/30 00:00:51;;;;;;;43.10;17.57;;;;;;;3.20;100.00;102193.41;4947088;58;1140957;-81
2024/01/30 00:05:58;;;;;;;41.53;19.70;;;;;;;3.19;100.00;102191.68;4927725;57;1140951;-78
2024/01/30 00:11:04;;;;;;;47.63;21.23;;;;;;;3.11;100.00;102193.13;4928209;57;1141024;-82
2024/01/30 00:16:11;;;;;;;56.47;26.73;;;;;;;3.05;100.00;102190.66;4947936;57;1140744;-81
2024/01/30 00:21:17;;;;;;;59.60;27.23;;;;;;;3.07;100.00;102196.69;4977516;56;1140570;-82
2024/01/30 00:26:23;;;;;;;41.77;19.17;;;;;;;3.06;100.00;102198.88;4977970;57;1140932;-83
2024/01/30 00:31:29;;;;;;;41.83;16.93;;;;;;;3.01;100.00;102197.27;4978256;56;1140820;-85
2024/01/30 00:36:34;;;;;;;42.83;18.93;;;;;;;2.94;100.00;102193.90;4998101;57;1140438;-81
2024/01/30 00:41:40;;;;;;;36.90;16.05;;;;;;;2.92;100.00;102193.50;4961360;56;1140699;-81
2024/01/30 00:46:46;;;;;;;45.43;19.90;;;;;;;2.88;100.00;102189.25;4945281;58;1141108;-80
2024/01/30 00:51:51;;;;;;;49.10;19.23;;;;;;;2.80;100.00;102188.08;4996054;57;1140819;-83
2024/01/30 00:56:57;;;;;;;54.23;23.47;;;;;;;2.75;100.00;102188.15;4979496;57;1140819;-81
2024/01/30 01:02:02;;;;;;;57.03;25.40;;;;;;;2.74;100.00;102188.21;4975707;57;1140911;-81
2024/01/30 01:07:08;;;;;;;81.23;26.37;;;;;;;2.76;100.00;102191.18;5051332;56;1141033;-82
2024/01/30 01:12:13;;;;;;;56.63;24.43;;;;;;;2.77;100.00;102182.91;5040338;57;1140552;-82
2024/01/30 01:17:19;;;;;;;54.60;21.17;;;;;;;2.73;100.00;102182.13;5026449;56;1140761;-84
2024/01/30 01:22:25;;;;;;;52.12;22.62;;;;;;;2.72;100.00;102177.78;5010482;57;1140864;-80
2024/01/30 01:27:32;;;;;;;49.67;19.90;;;;;;;2.68;100.00;102180.47;5065004;56;1140621;-78
2024/01/30 01:32:38;;;;;;;34.20;15.73;;;;;;;2.57;100.00;102161.53;5067488;56;1140653;-81
2024/01/30 01:37:43;;;;;;;44.40;18.23;;;;;;;2.57;100.00;102178.51;5053692;56;1140967;-85
2024/01/30 01:42:56;;;;;;;38.97;15.47;;;;;;;2.52;100.00;102181.64;5031181;56;1140715;-82
2024/01/30 01:47:58;;;;;;;40.53;17.77;;;;;;;2.45;100.00;102173.90;4970706;56;1140496;-82
2024/01/30 01:53:04;;;;;;;34.88;16.15;;;;;;;2.42;100.00;102171.81;4971224;57;1141181;-82
2024/01/30 01:58:12;;;;;;;46.25;17.05;;;;;;;2.37;100.00;102172.33;4990190;57;1140856;-79
2024/01/30 02:03:21;;;;;;;36.40;17.23;;;;;;;2.34;100.00;102175.84;5021604;56;1251939;-78
2024/01/30 02:08:27;;;;;;;43.37;17.60;;;;;;;2.27;100.00;102179.46;5060393;56;1140782;-81
2024/01/30 02:13:33;;;;;;;52.45;19.82;;;;;;;2.28;100.00;102177.71;5057732;56;1140805;-79
2024/01/30 02:18:43;;;;;;;53.53;23.80;;;;;;;2.27;100.00;102172.08;5089294;57;1140523;-83
2024/01/30 02:23:48;;;;;;;53.97;21.23;;;;;;;2.24;100.00;102178.20;5039121;56;1140908;-78
2024/01/30 02:28:54;;;;;;;49.73;20.97;;;;;;;2.23;100.00;102172.56;5033223;57;1140939;-82
2024/01/30 02:33:59;;;;;;;46.70;20.87;;;;;;;2.20;100.00;102161.30;5052618;57;1141258;-79
2024/01/30 02:39:05;;;;;;;47.43;22.52;;;;;;;2.16;100.00;102159.17;5033571;57;1140636;-82
2024/01/30 02:44:11;;;;;;;45.17;18.50;;;;;;;2.13;100.00;102147.95;4961182;57;1140807;-84
2024/01/30 02:49:16;;;;;;;39.43;16.10;;;;;;;2.13;100.00;102158.39;4970942;58;1141219;-79
2024/01/30 02:54:22;;;;;;;39.67;15.63;;;;;;;2.10;100.00;102158.86;4951150;58;1140882;-78
2024/01/30 02:59:27;;;;;;;39.75;17.45;;;;;;;2.08;100.00;102151.94;4952353;57;1140973;-81
2024/01/30 03:04:33;;;;;;;39.60;16.93;;;;;;;2.08;100.00;102146.27;4971638;58;1140894;-82
2024/01/30 03:09:39;;;;;;;45.70;18.50;;;;;;;2.06;100.00;102147.18;4989198;56;1140871;-82
2024/01/30 03:14:44;;;;;;;39.03;16.67;;;;;;;2.06;100.00;102152.40;5033257;57;1140651;-80
2024/01/30 03:19:50;;;;;;;40.40;16.43;;;;;;;2.02;100.00;102150.27;5025028;56;1140998;-80
2024/01/30 03:24:55;;;;;;;40.12;16.57;;;;;;;1.96;100.00;102149.09;4999336;57;1140847;-80
2024/01/30 03:30:01;;;;;;;36.15;15.83;;;;;;;1.90;100.00;102146.56;4999843;56;1140653;-84
2024/01/30 03:35:08;;;;;;;31.07;15.27;;;;;;;1.87;100.00;102149.66;5020036;55;1140705;-80
2024/01/30 03:40:15;;;;;;;40.73;15.57;;;;;;;1.83;100.00;102148.00;5008239;56;1140689;-81
2024/01/30 03:45:20;;;;;;;33.10;14.60;;;;;;;1.81;100.00;102149.33;5086122;56;1182616;-80
2024/01/30 03:50:26;;;;;;;49.07;14.87;;;;;;;1.80;100.00;102149.34;5085661;56;1238548;-81
2024/01/30 03:55:31;;;;;;;40.45;17.23;;;;;;;1.79;100.00;102155.01;5107136;56;1140903;-83
2024/01/30 04:00:37;;;;;;;43.35;16.45;;;;;;;1.81;100.00;102153.24;5087289;56;1140975;-80
2024/01/30 04:05:43;;;;;;;39.57;16.13;;;;;;;1.82;100.00;102148.45;5085054;56;1140918;-80
2024/01/30 04:10:48;;;;;;;42.43;17.53;;;;;;;1.84;100.00;102152.30;5106020;56;1140399;-81
2024/01/30 04:15:55;;;;;;;38.40;17.80;;;;;;;1.90;100.00;102154.39;5098909;56;1140530;-79
2024/01/30 04:21:00;;;;;;;47.23;17.70;;;;;;;1.91;100.00;102157.42;4972118;56;1141221;-78
2024/01/30 04:26:06;;;;;;;38.75;15.03;;;;;;;1.87;100.00;102154.88;4967142;57;1140755;-79
2024/01/30 04:31:12;;;;;;;39.47;16.83;;;;;;;1.83;100.00;102152.78;4946626;57;1236733;-81
2024/01/30 04:36:17;;;;;;;38.03;15.90;;;;;;;1.81;100.00;102145.86;4946308;56;1248384;-80
2024/01/30 04:41:23;;;;;;;39.30;15.97;;;;;;;1.79;100.00;102148.92;4990428;56;1237101;-82
2024/01/30 04:46:28;;;;;;;37.60;15.88;;;;;;;1.77;100.00;102147.64;5131794;56;1241899;-78
2024/01/30 04:51:34;;;;;;;36.05;15.38;;;;;;;1.76;100.00;102152.00;5099851;56;1241809;-78
2024/01/30 04:56:39;;;;;;;30.55;14.00;;;;;;;1.76;100.00;102154.61;5056137;56;1194401;-83
2024/01/30 05:01:45;;;;;;;33.67;14.43;;;;;;;1.75;100.00;102156.80;5039095;56;1245086;-84
2024/01/30 05:06:50;;;;;;;36.07;15.27;;;;;;;1.75;100.00;102159.84;5010507;56;1243054;-79
2024/01/30 05:11:56;;;;;;;33.63;14.47;;;;;;;1.72;100.00;102157.27;5018934;56;1259669;-77
2024/01/30 05:17:03;;;;;;;48.50;14.73;;;;;;;1.73;100.00;102168.13;5091837;55;1181625;-80
2024/01/30 05:22:08;;;;;;;36.50;14.77;;;;;;;1.72;100.00;102167.70;5006970;56;1246914;-81
2024/01/30 05:27:14;;;;;;;42.23;15.63;;;;;;;1.72;100.00;102172.48;5000533;57;1252223;-79
2024/01/30 05:32:19;;;;;;;42.77;18.50;;;;;;;1.74;100.00;102169.41;5023534;57;1141031;-79
2024/01/30 05:37:25;;;;;;;41.10;18.10;;;;;;;1.80;100.00;102163.70;5004455;57;1140940;-83
2024/01/30 05:42:31;;;;;;;36.35;15.70;;;;;;;1.83;100.00;102164.52;5049739;56;1140800;-79
2024/01/30 05:47:36;;;;;;;36.00;13.88;;;;;;;1.80;100.00;102163.70;5045397;56;1140805;-78
2024/01/30 05:52:42;;;;;;;46.50;22.03;;;;;;;1.72;100.00;102163.35;5003707;57;1140912;-79
2024/01/30 05:57:48;;;;;;;35.57;16.43;;;;;;;1.68;100.00;102168.19;5031719;57;1140874;-78
2024/01/30 06:02:53;;;;;;;34.07;15.10;;;;;;;1.66;100.00;102169.12;5107250;56;1141018;-78
2024/01/30 06:07:59;;;;;;;34.97;15.30;;;;;;;1.62;100.00;102164.82;5046771;56;1140807;-76
2024/01/30 06:13:05;;;;;;;36.73;15.43;;;;;;;1.59;100.00;102160.51;5003438;57;1192174;-78
2024/01/30 06:18:10;;;;;;;37.33;15.70;;;;;;;1.55;100.00;102159.26;5105735;57;1140662;-77
2024/01/30 06:23:16;;;;;;;37.83;15.40;;;;;;;1.51;100.00;102155.00;5018916;56;1140867;-79
2024/01/30 06:28:22;;;;;;;37.77;16.03;;;;;;;1.51;100.00;102161.52;5037938;55;1141070;-78
2024/01/30 06:33:27;;;;;;;38.28;15.38;;;;;;;1.49;100.00;102162.83;5043622;55;1140985;-79
2024/01/30 06:38:33;;;;;;;34.78;16.02;;;;;;;1.49;100.00;102159.36;5077138;56;1140896;-72
2024/01/30 06:43:38;;;;;;;30.93;15.30;;;;;;;1.47;100.00;102155.47;5029834;56;1144906;-73
2024/01/30 06:48:44;;;;;;;91.45;34.08;;;;;;;1.50;100.00;102159.78;5027437;57;1140716;-74
2024/01/30 06:53:50;;;;;;;37.73;15.67;;;;;;;1.52;100.00;102153.67;5034886;56;1141030;-75
2024/01/30 06:58:58;;;;;;;40.57;16.77;;;;;;;1.55;100.00;102157.95;4982364;57;1140525;-73
2024/01/30 07:04:03;;;;;;;33.93;14.60;;;;;;;1.54;100.00;102156.23;5088390;57;1140549;-74
2024/01/30 07:09:11;;;;;;;31.37;13.37;;;;;;;1.55;100.00;102161.42;5057151;56;1140728;-73
2024/01/30 07:14:17;;;;;;;41.10;15.27;;;;;;;1.56;100.00;102152.72;4943066;57;1140833;-78
2024/01/30 07:19:23;;;;;;;32.23;14.07;;;;;;;1.60;100.00;102154.85;5024969;55;1141005;-79
2024/01/30 07:24:28;;;;;;;37.90;15.15;;;;;;;1.62;100.00;102164.82;5027102;55;1141023;-77
2024/01/30 07:29:34;;;;;;;44.47;20.93;;;;;;;1.69;100.00;102165.13;5050138;56;1140719;-77
2024/01/30 07:34:40;;;;;;;43.43;18.80;;;;;;;1.82;100.00;102167.14;5025622;56;1146914;-78
2024/01/30 07:39:45;;;;;;;43.33;17.45;;;;;;;1.82;100.00;102167.14;5049520;55;1140796;-78
2024/01/30 07:44:51;;;;;;;41.37;16.57;;;;;;;1.92;100.00;102173.50;5124232;56;1140861;-77
2024/01/30 07:49:57;;;;;;;48.30;19.90;;;;;;;2.00;100.00;102166.84;5113305;56;1140731;-78
2024/01/30 07:55:03;;;;;;;35.10;15.18;;;;;;;2.05;100.00;102163.28;5104296;56;1140841;-77
2024/01/30 08:00:10;;;;;;;35.13;15.90;;;;;;;2.13;100.00;102169.70;5125301;55;1140766;-77
2024/01/30 08:05:16;;;;;;;32.87;15.07;;;;;;;2.23;100.00;102170.39;5036253;56;1140917;-77
2024/01/30 08:10:22;;;;;;;38.20;15.53;;;;;;;2.34;100.00;102173.23;5029119;57;1140965;-78
2024/01/30 08:15:27;;;;;;;43.87;17.40;;;;;;;2.46;100.00;102165.62;5052532;56;1140725;-77
2024/01/30 08:20:34;;;;;;;26.87;13.25;;;;;;;2.57;100.00;102164.14;5127492;56;1140852;-79
2024/01/30 08:25:40;;;;;;;33.37;14.50;;;;;;;2.67;100.00;102163.94;5055606;56;1145606;-79
2024/01/30 08:30:46;;;;;;;29.02;11.65;;;;;;;2.81;100.00;102162.36;5039652;56;1140904;-79
2024/01/30 08:35:51;;;;;;;27.45;12.23;;;;;;;2.94;100.00;102166.45;5064086;55;1140987;-78
2024/01/30 08:40:57;;;;;;;27.33;11.53;;;;;;;3.08;100.00;102157.89;5042378;56;1140907;-77
2024/01/30 08:46:03;;;;;;;25.43;11.90;;;;;;;3.30;100.00;102158.32;5012547;56;1140799;-78
2024/01/30 08:51:09;;;;;;;25.57;12.30;;;;;;;3.43;100.00;102159.77;4977250;57;1140837;-78
2024/01/30 08:56:16;;;;;;;30.93;11.80;;;;;;;3.57;100.00;102157.30;4966509;56;1140688;-77
2024/01/30 09:01:21;;;;;;;32.67;11.60;;;;;;;3.66;100.00;102161.89;5005232;56;1140882;-81
2024/01/30 09:06:28;;;;;;;33.80;12.97;;;;;;;3.75;100.00;102160.36;4998596;56;1140802;-78
2024/01/30 09:11:33;;;;;;;34.37;12.93;;;;;;;3.85;100.00;102161.85;5043994;57;1140664;-78
2024/01/30 09:16:40;;;;;;;25.50;11.55;;;;;;;3.95;100.00;102161.20;5065212;57;1140898;-78
2024/01/30 09:21:46;;;;;;;30.93;11.67;;;;;;;4.06;100.00;102153.95;5074700;56;1140678;-76
2024/01/30 09:26:51;;;;;;;29.03;12.37;;;;;;;4.18;100.00;102148.84;5033575;57;1140974;-73
2024/01/30 09:31:57;;;;;;;24.30;11.33;;;;;;;4.30;100.00;102150.29;5015092;56;1140674;-75
2024/01/30 09:37:03;;;;;;;30.90;12.37;;;;;;;4.38;100.00;102146.59;5071809;56;1140791;-79
2024/01/30 09:42:16;;;;;;;28.80;12.03;;;;;;;4.46;100.00;102138.06;5113866;56;1140733;-77
2024/01/30 09:47:22;;;;;;;41.77;16.42;;;;;;;4.54;100.00;102127.40;5113005;56;1140594;-75
2024/01/30 09:52:27;;;;;;;42.70;16.55;;;;;;;4.66;100.00;102124.89;5048317;56;1141212;-76
2024/01/30 09:57:34;;;;;;;31.73;13.17;;;;;;;4.76;100.00;102123.72;5106323;56;1140389;-77
2024/01/30 10:02:41;;;;;;;22.23;11.33;;;;;;;4.88;100.00;102119.02;5028649;56;1257027;-77
2024/01/30 10:07:55;;;;;;;34.80;12.00;;;;;;;5.00;100.00;102114.32;5032395;55;1140774;-77
2024/01/30 10:13:01;;;;;;;26.30;12.28;;;;;;;5.15;100.00;102115.19;5047809;55;1140622;-77
2024/01/30 10:18:07;;;;;;;30.30;14.60;;;;;;;5.27;100.00;102105.18;5058580;56;1140932;-76
2024/01/30 10:23:14;;;;;;;38.20;15.07;;;;;;;5.36;100.00;102101.85;5046654;56;1140801;-77
2024/01/30 10:28:21;;;;;;;42.87;15.03;;;;;;;5.40;100.00;102104.34;5050668;56;1140826;-76
2024/01/30 10:33:28;;;;;;;31.53;12.33;;;;;;;5.44;100.00;102099.42;5028433;56;1140864;-77
2024/01/30 10:38:34;;;;;;;38.30;13.30;;;;;;;5.50;100.00;102093.95;5040701;56;1140746;-76
2024/01/30 10:43:47;;;;;;;38.00;15.60;;;;;;;5.59;100.00;102087.58;5102385;56;1140946;-77
2024/01/30 10:49:00;;;;;;;51.70;14.93;;;;;;;5.70;100.00;102084.59;5052441;55;1140622;-77
2024/01/30 10:54:07;;;;;;;62.98;17.17;;;;;;;5.79;100.00;102085.63;4966545;57;1140928;-78
2024/01/30 10:59:14;;;;;;;48.38;15.65;;;;;;;5.84;100.00;102076.67;5023165;57;1140910;-76
2024/01/30 11:04:21;;;;;;;49.40;16.43;;;;;;;5.91;100.00;102072.98;5087706;56;1140858;-77
2024/01/30 11:09:26;;;;;;;78.40;24.90;;;;;;;5.96;100.00;102064.48;5084436;55;1140807;-76
2024/01/30 11:14:33;;;;;;;84.60;23.90;;;;;;;6.05;100.00;102059.84;5062259;56;1140910;-76
2024/01/30 11:19:39;;;;;;;47.60;14.47;;;;;;;6.16;100.00;102061.63;5060307;56;1259246;-76
2024/01/30 11:24:44;;;;;;;72.60;18.82;;;;;;;6.26;100.00;102055.17;5044798;56;1141013;-76
2024/01/30 11:29:51;;;;;;;43.77;15.33;;;;;;;6.31;100.00;102049.27;4999117;56;1140948;-77
2024/01/30 11:34:57;;;;;;;71.33;21.10;;;;;;;6.42;100.00;102041.86;5032071;56;1140877;-76
2024/01/30 11:40:05;;;;;;;58.93;23.23;;;;;;;6.54;100.00;102037.95;5031473;56;1141195;-77
2024/01/30 11:45:11;;;;;;;29.60;13.17;;;;;;;6.69;100.00;102034.76;5032194;56;1140797;-79
2024/01/30 11:50:18;;;;;;;32.23;12.83;;;;;;;6.83;100.00;102019.31;5052737;56;1140906;-77
2024/01/30 11:55:24;;;;;;;31.10;14.13;;;;;;;6.97;100.00;102011.75;5031272;56;1140812;-76
2024/01/30 12:00:35;;;;;;;32.42;17.57;;;;;;;7.15;100.00;102017.21;5029419;55;1140951;-77
2024/01/30 12:05:42;;;;;;;57.23;28.67;;;;;;;7.32;100.00;102010.37;5054907;56;1141126;-77
2024/01/30 12:10:44;;;;;;;44.00;19.37;;;;;;;7.53;100.00;102007.76;5032298;55;1140785;-77
2024/01/30 12:15:50;;;;;;;21.87;11.22;;;;;;;7.76;100.00;101996.68;5032028;56;1140728;-74
2024/01/30 12:21:00;;;;;;;30.33;11.03;;;;;;;8.07;100.00;102000.17;5045259;56;1140641;-77
2024/01/30 12:26:07;;;;;;;22.63;12.17;;;;;;;8.19;100.00;101986.05;5096878;55;1140956;-76
2024/01/30 12:31:12;;;;;;;20.00;11.20;;;;;;;8.26;100.00;101985.70;5060083;55;1140921;-74
2024/01/30 12:36:19;;;;;;;24.63;11.00;;;;;;;8.41;100.00;101981.09;5007746;57;1140793;-75
2024/01/30 12:41:29;;;;;;;32.40;13.30;;;;;;;8.62;100.00;101973.13;5025778;56;1140737;-77
2024/01/30 12:46:32;;;;;;;36.55;16.05;;;;;;;8.80;100.00;101969.64;5071483;55;1140707;-74
2024/01/30 12:51:38;;;;;;;26.25;11.85;;;;;;;9.03;100.00;101964.58;5067979;56;1142798;-81
2024/01/30 12:56:43;;;;;;;20.50;11.10;;;;;;;9.24;100.00;101958.27;5056317;56;1142989;-72
2024/01/30 13:01:49;;;;;;;48.60;17.53;;;;;;;9.51;100.00;101957.36;5025591;56;1142811;-75
2024/01/30 13:06:55;;;;;;;35.00;19.87;;;;;;;9.73;100.00;101947.42;5047633;56;1142763;-81
2024/01/30 13:12:01;;;;;;;22.77;12.20;;;;;;;9.97;100.00;101939.14;5031699;56;1143101;-80
2024/01/30 13:17:07;;;;;;;23.83;11.13;;;;;;;10.19;100.00;101945.91;5027121;55;1142876;-79
2024/01/30 13:22:12;;;;;;;29.23;11.27;;;;;;;10.39;100.00;101946.64;5091053;56;1144929;-78
2024/01/30 13:27:18;;;;;;;23.67;12.00;;;;;;;10.57;100.00;101937.20;5057862;55;1144749;-78
2024/01/30 13:32:24;;;;;;;24.00;11.83;;;;;;;10.87;100.00;101940.41;5105627;55;1145021;-81
2024/01/30 13:37:29;;;;;;;21.23;11.17;;;;;;;11.05;100.00;101943.34;5116930;56;1144795;-81
2024/01/30 13:42:35;;;;;;;19.83;10.93;;;;;;;11.16;100.00;101935.64;5088476;56;1144888;-80
2024/01/30 13:47:40;;;;;;;27.73;12.00;;;;;;;11.22;100.00;101930.47;5022130;57;1145216;-81
2024/01/30 13:52:46;;;;;;;20.17;11.07;;;;;;;11.24;100.00;101928.59;5032186;57;1144977;-79
2024/01/30 13:57:52;;;;;;;24.98;11.08;;;;;;;11.52;100.00;101925.17;5112590;56;1144857;-81
2024/01/30 14:02:58;;;;;;;34.27;15.03;;;;;;;11.78;100.00;101922.31;5116536;56;1144747;-80
2024/01/30 14:08:05;;;;;;;25.03;13.03;;;;;;;12.13;100.00;101924.16;5115640;56;1144776;-81
2024/01/30 14:13:11;;;;;;;28.53;13.90;;;;;;;12.28;100.00;101917.42;5146202;55;1144724;-79
2024/01/30 14:18:17;;;;;;;27.97;14.30;;;;;;;11.84;100.00;101906.05;5052352;56;1144723;-78
2024/01/30 14:23:23;;;;;;;29.43;13.53;;;;;;;11.84;100.00;101906.05;5033520;56;1145060;-80
2024/01/30 14:28:28;;;;;;;33.50;17.20;;;;;;;11.93;100.00;101910.78;5081601;55;1144655;-79
2024/01/30 14:33:34;;;;;;;29.87;13.10;;;;;;;11.82;100.00;101915.42;5131465;56;1144796;-78
2024/01/30 14:38:39;;;;;;;18.20;10.47;;;;;;;11.18;100.00;101914.37;5102145;55;1145156;-77
2024/01/30 14:43:45;;;;;;;29.70;12.77;;;;;;;10.53;100.00;101922.94;5099813;56;1145135;-77
2024/01/30 14:48:51;;;;;;;34.45;17.60;;;;;;;9.98;100.00;101921.89;5134069;56;1144891;-77
2024/01/30 14:53:56;;;;;;;32.67;15.13;;;;;;;9.55;100.00;101921.09;5063064;56;1143146;-78
2024/01/30 14:59:02;;;;;;;33.97;14.80;;;;;;;9.17;100.00;101919.89;5057389;56;1141071;-79
2024/01/30 15:04:08;;;;;;;48.47;21.20;;;;;;;8.85;100.00;101924.13;5059444;56;1140714;-77
2024/01/30 15:09:14;;;;;;;49.07;23.33;;;;;;;8.64;100.00;101931.72;5007486;54;1140770;-80
2024/01/30 15:14:20;;;;;;;48.57;20.97;;;;;;;8.43;100.00;101926.97;5055885;56;1140807;-80
2024/01/30 15:19:25;;;;;;;163.53;75.50;;;;;;;8.31;100.00;101936.73;5066141;56;1141037;-80
2024/01/30 15:24:31;;;;;;;115.70;51.00;;;;;;;8.12;100.00;101941.98;5157520;56;1142770;-80
2024/01/30 15:29:37;;;;;;;53.03;23.60;;;;;;;7.99;100.00;101939.03;5127525;56;1142765;-77
2024/01/30 15:34:43;;;;;;;80.13;34.63;;;;;;;7.83;100.00;101927.92;5065647;56;1141002;-78
2024/01/30 15:39:48;;;;;;;378.97;109.67;;;;;;;7.71;100.00;101928.00;5050432;56;1149067;-79
2024/01/30 15:44:54;;;;;;;249.92;114.90;;;;;;;7.52;100.00;101934.50;5061893;56;1145252;-78
2024/01/30 15:50:00;;;;;;;185.48;96.63;;;;;;;7.38;100.00;101935.09;5076100;55;1145063;-80
2024/01/30 15:55:05;;;;;;;175.67;95.93;;;;;;;7.27;100.00;101929.88;5092783;57;1142901;-78
2024/01/30 16:00:13;;;;;;;120.97;63.00;;;;;;;7.19;100.00;101931.49;5072461;57;1143142;-78
2024/01/30 16:05:19;;;;;;;113.10;46.53;;;;;;;7.16;100.00;101932.10;5113590;55;1143402;-78
2024/01/30 16:10:25;;;;;;;96.97;44.50;;;;;;;7.08;100.00;101933.72;5113547;56;1142832;-80
2024/01/30 16:15:30;;;;;;;132.83;74.53;;;;;;;6.93;100.00;101935.19;5085089;56;1140678;-77
2024/01/30 16:20:36;;;;;;;296.67;127.97;;;;;;;6.81;100.00;101923.84;5136400;55;1142884;-79
2024/01/30 16:25:41;;;;;;;510.40;231.30;;;;;;;6.70;100.00;101925.59;5130464;56;1144871;-79
2024/01/30 16:30:47;;;;;;;321.87;122.20;;;;;;;6.59;100.00;101924.27;5174734;56;1145300;-80
2024/01/30 16:35:53;;;;;;;455.45;196.68;;;;;;;6.44;100.00;101924.40;5123323;56;1145033;-78
2024/01/30 16:40:58;;;;;;;299.48;108.75;;;;;;;6.35;100.00;101924.77;5133991;56;1145092;-76
2024/01/30 16:46:04;;;;;;;192.05;85.30;;;;;;;6.31;100.00;101921.84;5150947;56;1145012;-79
2024/01/30 16:51:10;;;;;;;115.23;51.80;;;;;;;6.29;100.00;101919.27;5082726;56;1142782;-77
2024/01/30 16:56:16;;;;;;;375.03;180.03;;;;;;;6.27;100.00;101911.89;5104356;56;1143179;-77
2024/01/30 17:01:22;;;;;;;164.70;93.03;;;;;;;6.23;100.00;101910.78;5137932;56;1145311;-80
2024/01/30 17:06:28;;;;;;;124.37;58.80;;;;;;;6.20;100.00;101906.95;5049995;56;1142651;-79
2024/01/30 17:11:33;;;;;;;121.10;46.23;;;;;;;6.17;100.00;101907.05;5014224;56;1142909;-78
2024/01/30 17:16:39;;;;;;;98.77;48.77;;;;;;;6.14;100.00;101904.53;5134448;56;1142726;-78
2024/01/30 17:21:45;;;;;;;105.97;40.70;;;;;;;6.15;100.00;101892.66;5114839;56;1140948;-77
2024/01/30 17:26:50;;;;;;;110.30;39.20;;;;;;;6.19;100.00;101892.09;5080408;56;1261906;-80
2024/01/30 17:31:56;;;;;;;94.90;29.20;;;;;;;6.19;100.00;101892.09;5102604;56;1142842;-81
2024/01/30 17:37:02;;;;;;;68.90;25.07;;;;;;;6.16;100.00;101892.20;5086869;56;1141167;-81
2024/01/30 17:42:07;;;;;;;87.40;33.18;;;;;;;6.08;100.00;101896.90;5077389;56;1140620;-81
2024/01/30 17:47:13;;;;;;;69.43;31.73;;;;;;;6.00;100.00;101902.41;5095711;55;1141031;-79
2024/01/30 17:52:19;;;;;;;70.77;31.23;;;;;;;5.95;100.00;101909.17;5112445;55;1140914;-79
2024/01/30 17:57:24;;;;;;;181.60;49.83;;;;;;;5.95;100.00;101899.98;5160004;55;1140906;-79
2024/01/30 18:02:30;;;;;;;278.23;72.62;;;;;;;5.95;100.00;101899.98;5112406;57;1142893;-77
2024/01/30 18:07:38;;;;;;;323.90;85.57;;;;;;;5.94;100.00;101894.78;5081281;56;1143646;-78
2024/01/30 18:12:43;;;;;;;477.77;138.43;;;;;;;5.91;100.00;101883.92;5218125;56;1142860;-81
2024/01/30 18:17:49;;;;;;;203.37;62.50;;;;;;;5.90;100.00;101878.73;5182591;55;1144670;-79
2024/01/30 18:22:55;;;;;;;108.83;39.00;;;;;;;5.84;100.00;101888.09;5245841;56;1142956;-77
2024/01/30 18:28:02;;;;;;;352.50;134.13;;;;;;;5.77;100.00;101878.75;5178579;56;1142604;-80
2024/01/30 18:33:08;;;;;;;232.53;90.47;;;;;;;5.73;100.00;101873.20;5187738;56;1144906;-81
2024/01/30 18:38:14;;;;;;;759.22;284.37;;;;;;;5.71;100.00;101878.95;5114907;55;1142822;-77
2024/01/30 18:43:19;;;;;;;458.33;143.93;;;;;;;5.65;100.00;101873.00;5100745;56;1144844;-80
2024/01/30 18:48:25;;;;;;;344.40;98.17;;;;;;;5.61;100.00;101878.43;5030685;56;1145343;-79
2024/01/30 18:53:31;;;;;;;696.33;190.70;;;;;;;5.60;100.00;101868.39;5006042;57;1143080;-77
2024/01/30 18:58:37;;;;;;;561.75;158.97;;;;;;;5.60;100.00;101876.27;5016820;57;1144870;-78
2024/01/30 19:03:42;;;;;;;276.85;74.90;;;;;;;5.59;100.00;101874.55;5028170;56;1144909;-78
2024/01/30 19:08:48;;;;;;;124.00;43.68;;;;;;;5.59;100.00;101874.55;5039666;56;1142674;-77
2024/01/30 19:13:53;;;;;;;140.97;42.17;;;;;;;5.58;100.00;101872.83;5062447;56;1143008;-77
2024/01/30 19:18:59;;;;;;;70.27;27.57;;;;;;;5.57;100.00;101863.23;4947707;56;1142857;-78
2024/01/30 19:24:05;;;;;;;51.23;21.07;;;;;;;5.58;100.00;101867.58;4948503;56;1140902;-78
2024/01/30 19:29:10;;;;;;;58.43;22.60;;;;;;;5.60;100.00;101871.02;4967908;57;1140892;-78
2024/01/30 19:34:16;;;;;;;46.20;22.03;;;;;;;5.60;100.00;101874.09;4967800;56;1140619;-77
2024/01/30 19:39:22;;;;;;;46.73;20.53;;;;;;;5.60;100.00;101868.39;4958286;56;1141116;-78
2024/01/30 19:44:27;;;;;;;42.33;20.47;;;;;;;5.60;100.00;101867.08;5053524;56;1140902;-76
2024/01/30 19:49:33;;;;;;;51.50;22.50;;;;;;;5.59;100.00;101877.63;5090473;57;1141377;-77
2024/01/30 19:54:39;;;;;;;50.53;22.77;;;;;;;5.57;100.00;101875.05;5031245;57;1140852;-78
2024/01/30 19:59:44;;;;;;;68.30;30.33;;;;;;;5.57;100.00;101881.61;5024490;57;1140683;-77
2024/01/30 20:04:50;;;;;;;69.47;33.53;;;;;;;5.55;100.00;101883.43;5053826;57;1140671;-76
2024/01/30 20:09:55;;;;;;;64.75;31.48;;;;;;;5.55;100.00;101883.43;5033854;57;1140501;-79
2024/01/30 20:15:01;;;;;;;54.17;22.87;;;;;;;5.50;100.00;101889.28;5053518;57;1141209;-77
2024/01/30 20:20:10;;;;;;;59.57;26.00;;;;;;;5.50;100.00;101883.20;5053730;57;1140921;-79
2024/01/30 20:25:16;;;;;;;55.57;31.20;;;;;;;5.47;100.00;101889.87;5065590;57;1140706;-78
2024/01/30 20:30:22;;;;;;;60.10;28.13;;;;;;;5.44;100.00;101889.97;5053805;56;1140919;-78
2024/01/30 20:35:28;;;;;;;50.40;25.37;;;;;;;5.41;100.00;101886.98;5033959;56;1140629;-79
2024/01/30 20:40:35;;;;;;;44.80;21.33;;;;;;;5.36;100.00;101875.78;5041072;56;1140544;-79
2024/01/30 20:45:41;;;;;;;55.28;23.70;;;;;;;5.37;100.00;101884.06;4980560;56;1140693;-79
2024/01/30 20:50:47;;;;;;;48.67;22.77;;;;;;;5.39;100.00;101874.37;5034256;57;1140607;-76
2024/01/30 20:55:53;;;;;;;65.30;29.10;;;;;;;5.37;100.00;101875.33;5050211;57;1140469;-76
2024/01/30 21:00:58;;;;;;;61.60;29.63;;;;;;;5.34;100.00;101865.83;5083620;55;1140961;-79
2024/01/30 21:06:05;;;;;;;56.33;26.53;;;;;;;5.34;100.00;101866.28;5075338;55;1140844;-77
2024/01/30 21:11:11;;;;;;;51.70;23.87;;;;;;;5.30;100.00;101874.70;5107464;56;1140615;-79
2024/01/30 21:16:17;;;;;;;54.10;23.33;;;;;;;5.26;100.00;101879.19;5063825;56;1140549;-80
2024/01/30 21:21:22;;;;;;;52.27;23.27;;;;;;;5.23;100.00;101870.56;5087491;56;1140829;-78
2024/01/30 21:26:28;;;;;;;56.87;23.27;;;;;;;5.25;100.00;101877.47;5087543;56;1140744;-78
2024/01/30 21:31:33;;;;;;;78.20;37.83;;;;;;;5.25;100.00;101886.66;5107936;56;1140882;-80
2024/01/30 21:36:39;;;;;;;54.70;28.92;;;;;;;5.22;100.00;101885.89;5087497;56;1140773;-81
2024/01/30 21:41:45;;;;;;;54.35;25.27;;;;;;;5.19;100.00;101878.15;5066388;56;1140928;-80
2024/01/30 21:46:50;;;;;;;79.33;31.80;;;;;;;5.14;100.00;101879.61;5109121;56;1140892;-81
2024/01/30 21:51:56;;;;;;;119.93;44.17;;;;;;;5.12;100.00;101855.19;5131467;56;1140313;-80
2024/01/30 21:57:02;;;;;;;54.13;23.73;;;;;;;5.09;100.00;101863.16;5137211;56;1142536;-81
2024/01/30 22:02:25;;;;;;;48.85;21.62;;;;;;;5.06;100.00;101859.77;5138558;56;1140875;-79
2024/01/30 22:07:31;;;;;;;46.33;22.17;;;;;;;5.03;100.00;101871.70;5136017;56;1141739;-80
2024/01/30 22:12:36;;;;;;;102.15;32.42;;;;;;;5.02;100.00;101857.73;5039261;56;1141017;-80
2024/01/30 22:17:42;;;;;;;117.50;32.58;;;;;;;5.02;100.00;101868.22;5031037;56;1142820;-80
2024/01/30 22:22:47;;;;;;;297.30;66.60;;;;;;;5.00;100.00;101870.48;5073004;56;1143055;-80
2024/01/30 22:27:53;;;;;;;110.10;32.17;;;;;;;4.97;100.00;101883.23;5052925;56;1142545;-79
2024/01/30 22:32:59;;;;;;;71.23;22.27;;;;;;;4.96;100.00;101888.07;5052926;56;1142903;-79